Time;durP1;ratioP1;P1;durP2;ratioP2;P2;SDS_P1;SDS_P2;PMS_P1;PMS_P2;Temp;Humidity;BMP_temperature;BMP_pressure;BME280_temperature;BME280_humidity;BME280_pressure;Samples;Min_cycle;Max_cycle;Signal;HPM_P1;HPM_P2
2021/04/23 00:01:03;;;;;;;14.77;5.30;;;;;;;4.78;52.62;96412.19;4989136;28;20061;-53
2021/04/23 00:03:42;;;;;;;11.93;5.13;;;;;;;4.80;52.72;96404.63;4991976;28;20412;-49
2021/04/23 00:06:17;;;;;;;9.77;4.70;;;;;;;4.67;52.48;96407.97;4992404;28;20050;-51
2021/04/23 00:08:51;;;;;;;10.65;4.50;;;;;;;4.77;52.03;96413.25;4982133;28;20047;-51
2021/04/23 00:11:20;;;;;;;9.55;4.65;;;;;;;4.73;51.54;96408.75;4972739;28;20050;-50
2021/04/23 00:13:47;;;;;;;13.75;4.43;;;;;;;4.56;52.25;96404.59;4982770;28;20054;-50
2021/04/23 00:16:14;;;;;;;14.68;5.00;;;;;;;4.50;52.72;96396.91;4991944;28;20500;-51
2021/04/23 00:18:41;;;;;;;14.52;4.95;;;;;;;4.56;53.20;96393.09;4991881;28;20054;-53
2021/04/23 00:21:11;;;;;;;11.48;5.30;;;;;;;4.41;54.06;96394.81;4991409;28;20050;-51
2021/04/23 00:23:39;;;;;;;16.63;5.32;;;;;;;4.61;52.11;96398.38;4988766;28;20396;-50
2021/04/23 00:26:07;;;;;;;12.02;4.53;;;;;;;4.60;51.61;96397.59;4991786;28;20051;-48
2021/04/23 00:28:36;;;;;;;10.23;4.65;;;;;;;4.47;51.59;96405.50;4991799;28;20050;-52
2021/04/23 00:31:06;;;;;;;8.43;4.53;;;;;;;4.47;51.23;96398.25;4990812;28;20165;-51
2021/04/23 00:33:34;;;;;;;11.82;4.82;;;;;;;4.57;52.02;96400.03;4991964;28;20483;-47
2021/04/23 00:36:03;;;;;;;10.85;4.25;;;;;;;4.53;52.31;96396.34;4991915;28;20169;-46
2021/04/23 00:38:30;;;;;;;12.32;5.03;;;;;;;4.43;52.98;96398.00;4992121;28;20050;-46
2021/04/23 00:40:59;;;;;;;10.38;5.07;;;;;;;4.19;54.78;96402.47;4991244;28;20105;-49
2021/04/23 00:43:29;;;;;;;11.80;4.85;;;;;;;4.42;53.46;96401.78;4982797;28;20113;-48
2021/04/23 00:46:06;;;;;;;11.27;4.82;;;;;;;4.39;53.35;96396.97;4972629;28;20070;-48
2021/04/23 00:48:35;;;;;;;9.25;4.78;;;;;;;4.33;53.65;96398.09;4972359;28;20058;-45
2021/04/23 00:51:08;;;;;;;10.32;4.32;;;;;;;4.26;53.47;96408.34;4972006;28;20058;-51
2021/04/23 00:53:38;;;;;;;13.47;5.07;;;;;;;4.13;53.93;96401.75;4952590;28;20056;-50
2021/04/23 00:56:08;;;;;;;11.93;4.75;;;;;;;3.96;54.46;96399.47;4952861;28;20461;-51
2021/04/23 00:58:35;;;;;;;8.70;4.80;;;;;;;3.79;55.31;96390.97;4952996;28;20043;-49
2021/04/23 01:01:08;;;;;;;10.93;4.70;;;;;;;3.81;55.13;96396.88;4958332;28;20117;-51
2021/04/23 01:03:35;;;;;;;13.85;4.45;;;;;;;3.70;55.15;96411.38;4971909;28;20050;-55
2021/04/23 01:06:13;;;;;;;9.20;5.05;;;;;;;3.82;55.00;96403.81;4972049;28;20054;-52
2021/04/23 01:08:40;;;;;;;10.50;4.93;;;;;;;3.76;55.69;96407.59;4976237;28;20050;-48
2021/04/23 01:11:08;;;;;;;11.57;5.05;;;;;;;3.91;54.88;96401.38;4991184;28;20057;-49
2021/04/23 01:13:35;;;;;;;9.38;4.50;;;;;;;3.89;54.39;96409.66;4989617;28;20054;-50
2021/04/23 01:16:04;;;;;;;10.45;4.63;;;;;;;3.77;55.08;96400.34;4991071;28;20057;-49
2021/04/23 01:18:33;;;;;;;8.90;4.70;;;;;;;3.73;54.64;96406.25;4990008;28;20050;-50
2021/04/23 01:21:11;;;;;;;12.70;5.40;;;;;;;3.71;53.53;96402.28;4989751;28;20720;-52
2021/04/23 01:23:40;;;;;;;12.88;5.18;;;;;;;3.80;53.93;96397.13;4990962;28;20058;-51
2021/04/23 01:26:08;;;;;;;10.02;5.10;;;;;;;3.80;53.36;96400.59;4989998;28;20050;-49
2021/04/23 01:28:35;;;;;;;14.90;4.75;;;;;;;3.68;53.90;96397.50;4991579;28;20135;-50
2021/04/23 01:31:05;;;;;;;10.43;4.40;;;;;;;3.49;54.36;96405.34;4979862;28;20047;-51
2021/04/23 01:33:32;;;;;;;11.85;5.18;;;;;;;3.43;55.37;96403.75;4975218;28;20086;-51
2021/04/23 01:35:59;;;;;;;12.57;4.95;;;;;;;3.40;55.39;96415.00;4975327;28;20055;-50
2021/04/23 01:38:25;;;;;;;11.25;4.93;;;;;;;3.51;55.11;96416.56;4970287;28;20074;-52
2021/04/23 01:40:52;;;;;;;10.98;5.00;;;;;;;3.50;54.90;96409.59;4975193;28;20074;-51
2021/04/23 01:43:19;;;;;;;11.75;5.03;;;;;;;3.64;54.84;96413.28;4974306;28;20047;-50
2021/04/23 01:45:46;;;;;;;11.85;5.35;;;;;;;3.56;55.18;96405.84;4974929;28;20435;-50
2021/04/23 01:48:15;;;;;;;12.98;4.63;;;;;;;3.49;55.52;96411.50;4974888;28;20074;-51
2021/04/23 01:50:42;;;;;;;9.13;4.55;;;;;;;3.42;55.97;96411.00;4974877;28;20448;-50
2021/04/23 01:53:09;;;;;;;14.48;5.72;;;;;;;3.39;56.14;96427.59;4993263;28;20136;-54
2021/04/23 01:55:36;;;;;;;12.35;6.30;;;;;;;3.27;56.22;96419.88;4994259;28;20051;-50
2021/04/23 01:58:03;;;;;;;12.20;4.90;;;;;;;3.21;56.92;96420.94;4992814;28;20046;-51
2021/04/23 02:00:34;;;;;;;15.32;5.75;;;;;;;3.20;57.31;96418.56;4988792;28;20054;-51
2021/04/23 02:03:04;;;;;;;9.93;4.50;;;;;;;3.25;56.90;96421.19;4974509;28;20413;-49
2021/04/23 02:05:32;;;;;;;12.63;4.93;;;;;;;3.17;58.14;96424.47;4974422;28;20058;-49
2021/04/23 02:07:59;;;;;;;8.80;4.78;;;;;;;3.16;58.26;96420.97;4974531;28;20051;-54
2021/04/23 02:10:33;;;;;;;12.02;5.63;;;;;;;3.20;58.94;96422.03;4989942;28;20193;-54
2021/04/23 02:13:01;;;;;;;10.68;4.93;;;;;;;3.26;58.35;96425.50;4988261;28;20051;-51
2021/04/23 02:15:29;;;;;;;15.77;5.32;;;;;;;3.22;58.48;96427.13;4974527;28;20050;-53
2021/04/23 02:17:57;;;;;;;10.15;4.68;;;;;;;3.16;58.73;96423.66;4974409;28;20043;-52
2021/04/23 02:20:28;;;;;;;12.88;5.20;;;;;;;3.13;58.85;96418.84;4974478;28;20531;-55
2021/04/23 02:22:57;;;;;;;12.57;5.28;;;;;;;3.14;58.76;96411.63;4973783;28;20114;-51
2021/04/23 02:25:24;;;;;;;11.77;4.93;;;;;;;2.96;59.58;96415.72;4974502;28;20515;-51
2021/04/23 02:27:50;;;;;;;10.70;5.18;;;;;;;2.91;59.93;96421.84;4974355;28;20124;-51
2021/04/23 02:30:24;;;;;;;11.13;5.65;;;;;;;2.94;60.02;96421.31;4979972;28;20049;-54
2021/04/23 02:32:51;;;;;;;14.80;5.93;;;;;;;2.97;59.94;96418.09;4993605;28;20117;-51
2021/04/23 02:35:19;;;;;;;14.63;4.78;;;;;;;2.99;59.79;96415.97;4993673;28;20061;-51
2021/04/23 02:37:46;;;;;;;14.05;5.07;;;;;;;3.11;59.67;96415.66;4990571;28;20051;-53
2021/04/23 02:40:16;;;;;;;12.77;5.18;;;;;;;3.06;59.71;96412.22;4993584;28;20074;-53
2021/04/23 02:42:44;;;;;;;12.18;4.97;;;;;;;3.00;60.38;96414.88;4991737;28;20448;-51
2021/04/23 02:45:14;;;;;;;10.95;5.07;;;;;;;3.01;60.24;96411.13;4986173;28;20065;-51
2021/04/23 02:47:41;;;;;;;13.25;4.40;;;;;;;2.92;60.10;96407.41;4973811;28;20050;-49
2021/04/23 02:50:10;;;;;;;10.35;4.97;;;;;;;2.90;60.18;96420.25;4972645;28;20054;-50
2021/04/23 02:52:36;;;;;;;12.63;4.85;;;;;;;2.84;60.44;96418.66;4961504;28;20129;-53
2021/04/23 02:55:05;;;;;;;11.35;4.95;;;;;;;2.68;61.33;96417.09;4954478;28;20055;-49
2021/04/23 02:57:31;;;;;;;11.60;5.22;;;;;;;2.89;61.37;96423.97;4954608;28;20090;-50
2021/04/23 02:59:58;;;;;;;11.65;5.13;;;;;;;2.91;61.02;96415.72;4954426;28;20055;-49
2021/04/23 03:02:26;;;;;;;10.15;5.30;;;;;;;2.67;62.09;96426.19;4992342;28;20173;-51
2021/04/23 03:04:54;;;;;;;13.40;4.80;;;;;;;2.50;62.66;96427.28;4993069;28;20133;-50
2021/04/23 03:07:21;;;;;;;10.80;5.00;;;;;;;2.48;62.87;96418.72;4992978;28;20104;-50
2021/04/23 03:09:49;;;;;;;9.50;4.95;;;;;;;2.54;62.62;96432.88;4980852;28;20047;-51
2021/04/23 03:12:17;;;;;;;8.55;5.65;;;;;;;2.56;62.35;96430.72;4971971;28;20186;-51
2021/04/23 03:14:44;;;;;;;12.63;4.70;;;;;;;2.63;61.78;96431.25;4973189;28;20113;-50
2021/04/23 03:17:11;;;;;;;15.23;5.78;;;;;;;2.68;61.47;96428.56;4973574;28;20055;-49
2021/04/23 03:19:37;;;;;;;16.73;5.03;;;;;;;2.58;60.98;96426.72;4973704;28;20055;-50
2021/04/23 03:22:03;;;;;;;12.23;4.93;;;;;;;2.60;60.46;96421.13;4972719;28;20130;-46
2021/04/23 03:24:30;;;;;;;10.18;4.70;;;;;;;2.82;59.42;96420.78;4973192;28;20144;-50
2021/04/23 03:26:57;;;;;;;12.70;4.95;;;;;;;2.75;59.62;96423.75;4973020;28;20143;-46
2021/04/23 03:29:24;;;;;;;10.13;4.90;;;;;;;2.60;60.05;96423.78;4973439;28;20105;-46
2021/04/23 03:31:50;;;;;;;10.30;4.70;;;;;;;2.46;61.21;96415.50;4972667;28;20501;-50
2021/04/23 03:34:17;;;;;;;13.07;5.30;;;;;;;2.65;60.43;96420.31;4973238;28;20051;-48
2021/04/23 03:36:43;;;;;;;14.98;5.18;;;;;;;2.60;60.73;96420.28;4973138;28;20070;-48
2021/04/23 03:39:12;;;;;;;13.80;4.85;;;;;;;2.34;61.93;96423.00;4968395;28;20106;-46
2021/04/23 03:41:40;;;;;;;9.95;4.72;;;;;;;2.30;63.07;96422.72;4972265;28;20051;-47
2021/04/23 03:44:07;;;;;;;15.73;4.93;;;;;;;2.60;61.62;96420.28;4972610;28;20153;-44
2021/04/23 03:46:34;;;;;;;15.18;5.30;;;;;;;2.63;61.52;96414.41;4972778;28;20102;-45
2021/04/23 03:49:01;;;;;;;11.90;6.85;;;;;;;2.54;61.78;96420.31;4972824;28;20058;-46
2021/04/23 03:51:27;;;;;;;11.82;5.32;;;;;;;2.52;62.05;96419.78;4981660;28;20517;-48
2021/04/23 03:53:54;;;;;;;10.85;4.90;;;;;;;2.30;62.86;96427.25;4992202;28;20104;-46
2021/04/23 03:56:21;;;;;;;12.10;5.05;;;;;;;2.19;63.42;96426.47;4991068;28;20772;-46
2021/04/23 03:58:50;;;;;;;13.70;5.32;;;;;;;2.11;64.09;96424.31;4990822;28;20141;-46
2021/04/23 04:01:21;;;;;;;14.18;5.05;;;;;;;2.30;63.73;96424.59;4992051;28;20050;-52
2021/04/23 04:03:49;;;;;;;12.85;5.35;;;;;;;2.18;64.12;96434.72;4990706;28;20046;-49
2021/04/23 04:06:15;;;;;;;11.23;5.22;;;;;;;2.14;64.33;96439.00;4991843;28;20054;-47
2021/04/23 04:08:42;;;;;;;11.18;5.15;;;;;;;2.23;63.95;96438.19;4990381;28;20419;-46
2021/04/23 04:11:10;;;;;;;11.93;5.40;;;;;;;2.30;63.80;96443.28;4992134;28;20436;-50
2021/04/23 04:13:37;;;;;;;10.77;5.35;;;;;;;2.36;63.26;96441.41;4990836;28;20050;-49
2021/04/23 04:16:04;;;;;;;12.23;5.10;;;;;;;2.26;63.95;96442.22;4992289;28;20120;-50
2021/04/23 04:18:31;;;;;;;12.25;4.97;;;;;;;2.28;64.00;96446.22;4992207;28;20082;-49
2021/04/23 04:20:59;;;;;;;10.32;5.97;;;;;;;2.29;63.84;96444.34;4992008;28;20456;-48
2021/04/23 04:23:25;;;;;;;12.88;5.22;;;;;;;2.27;63.60;96443.81;4972483;28;20077;-51
2021/04/23 04:25:56;;;;;;;12.45;5.10;;;;;;;2.38;63.39;96453.44;4972399;28;20050;-50
2021/04/23 04:28:28;;;;;;;11.95;5.70;;;;;;;2.29;63.71;96452.38;4972179;28;20079;-49
2021/04/23 04:30:55;;;;;;;11.80;5.57;;;;;;;2.31;63.73;96460.91;4972365;28;20062;-49
2021/04/23 04:33:42;;;;;;;11.77;5.45;;;;;;;2.40;63.33;96469.97;4952999;28;20047;-49
2021/04/23 04:36:09;;;;;;;12.20;5.82;;;;;;;2.32;63.84;96462.50;4952672;28;20058;-49
2021/04/23 04:38:36;;;;;;;13.60;5.57;;;;;;;2.34;63.77;96465.72;4952891;28;20098;-51
2021/04/23 04:41:03;;;;;;;11.73;5.60;;;;;;;2.31;64.06;96474.28;4965573;28;20109;-54
2021/04/23 04:43:29;;;;;;;14.15;5.15;;;;;;;2.34;64.57;96465.72;4971490;28;20365;-50
2021/04/23 04:45:56;;;;;;;13.63;5.15;;;;;;;2.30;65.13;96472.66;4971973;28;20109;-54
2021/04/23 04:48:22;;;;;;;15.13;5.13;;;;;;;2.37;64.78;96470.50;4971933;28;20047;-52
2021/04/23 04:50:58;;;;;;;10.88;5.20;;;;;;;2.30;65.67;96477.97;4971457;28;20473;-50
2021/04/23 04:53:26;;;;;;;14.43;5.65;;;;;;;2.54;65.63;96487.09;4971866;28;20078;-45
2021/04/23 04:55:56;;;;;;;22.55;6.70;;;;;;;2.82;64.16;96476.91;4972137;28;20050;-49
2021/04/23 04:58:30;;;;;;;11.10;5.03;;;;;;;2.94;63.35;96488.13;4971858;28;20082;-46
2021/04/23 05:00:59;;;;;;;12.27;5.75;;;;;;;2.97;63.66;96484.91;4983080;28;20046;-46
2021/04/23 05:03:26;;;;;;;14.60;5.32;;;;;;;3.10;63.12;96488.13;4975981;28;20137;-47
2021/04/23 05:05:52;;;;;;;14.90;5.82;;;;;;;3.19;63.22;96494.50;4979764;28;20578;-47
2021/04/23 05:08:19;;;;;;;13.93;6.07;;;;;;;3.19;63.16;96498.00;4994287;28;20054;-45
2021/04/23 05:10:46;;;;;;;12.63;5.78;;;;;;;3.29;62.75;96499.84;4993390;28;20054;-47
2021/04/23 05:13:12;;;;;;;15.27;4.93;;;;;;;3.49;61.42;96501.66;4987202;28;20050;-46
2021/04/23 05:15:39;;;;;;;9.85;5.30;;;;;;;3.72;60.50;96506.38;4975774;28;20047;-51
2021/04/23 05:18:06;;;;;;;12.45;5.32;;;;;;;3.85;60.04;96504.97;4975435;28;20121;-52
2021/04/23 05:20:34;;;;;;;14.18;5.57;;;;;;;3.97;58.75;96505.47;4975569;28;20055;-53
2021/04/23 05:23:01;;;;;;;13.40;5.03;;;;;;;4.05;58.26;96511.31;4974772;28;20137;-52
2021/04/23 05:25:28;;;;;;;11.48;4.80;;;;;;;4.09;57.70;96507.78;4975459;28;20163;-50
2021/04/23 05:27:55;;;;;;;12.40;5.38;;;;;;;4.17;59.61;96511.78;4975043;28;20421;-48
2021/04/23 05:30:25;;;;;;;13.85;5.15;;;;;;;4.53;55.71;96514.25;4975472;28;20055;-51
2021/04/23 05:32:53;;;;;;;15.75;5.35;;;;;;;4.71;54.75;96518.91;4975413;28;20093;-54
2021/04/23 05:35:25;;;;;;;12.23;5.70;;;;;;;4.83;54.12;96519.34;4976392;28;20062;-50
2021/04/23 05:37:52;;;;;;;11.90;5.00;;;;;;;4.67;54.18;96520.56;4983002;28;20113;-51
2021/04/23 05:40:24;;;;;;;12.70;5.22;;;;;;;4.74;53.22;96525.59;4970387;28;20081;-52
2021/04/23 05:42:52;;;;;;;12.93;5.40;;;;;;;4.85;53.92;96527.13;4977287;28;20058;-51
2021/04/23 05:45:19;;;;;;;10.88;4.45;;;;;;;4.96;53.33;96534.00;4987739;28;20050;-53
2021/04/23 05:47:45;;;;;;;14.48;5.85;;;;;;;4.85;53.88;96529.81;4974893;28;20096;-49
2021/04/23 05:50:13;;;;;;;11.77;5.10;;;;;;;4.93;53.98;96530.00;4974270;28;20075;-50
2021/04/23 05:52:42;;;;;;;16.70;6.40;;;;;;;5.10;53.34;96534.13;4971515;28;20090;-52
2021/04/23 05:55:11;;;;;;;12.40;6.03;;;;;;;5.32;53.08;96537.16;4974738;28;20580;-57
2021/04/23 05:57:38;;;;;;;11.32;5.65;;;;;;;5.23;53.06;96533.50;4987098;28;20101;-54
2021/04/23 06:00:09;;;;;;;10.88;5.38;;;;;;;5.43;52.99;96542.41;4973713;28;20051;-52
2021/04/23 06:02:50;;;;;;;17.42;6.18;;;;;;;5.67;52.08;96539.75;4955064;28;20051;-49
2021/04/23 06:05:18;;;;;;;13.70;6.00;;;;;;;5.80;51.69;96541.75;4955633;28;20405;-49
2021/04/23 06:07:45;;;;;;;12.40;6.13;;;;;;;5.58;52.06;96540.38;4973947;28;20043;-49
2021/04/23 06:10:14;;;;;;;13.93;5.50;;;;;;;5.76;51.82;96544.22;4972932;28;20046;-48
2021/04/23 06:12:42;;;;;;;16.95;5.95;;;;;;;5.41;52.46;96544.59;4984849;28;20061;-48
2021/04/23 06:15:11;;;;;;;12.80;5.70;;;;;;;5.77;52.11;96545.81;4974414;28;20082;-48
2021/04/23 06:17:37;;;;;;;12.00;5.28;;;;;;;5.63;51.89;96548.38;4974151;28;20047;-52
2021/04/23 06:20:12;;;;;;;12.18;6.05;;;;;;;6.03;51.59;96551.72;4973634;28;20051;-48
2021/04/23 06:22:38;;;;;;;11.80;5.75;;;;;;;6.14;51.14;96543.50;4973956;28;20138;-49
2021/04/23 06:25:08;;;;;;;11.65;6.10;;;;;;;6.23;50.54;96547.97;4974128;28;20066;-50
2021/04/23 06:27:35;;;;;;;16.75;5.97;;;;;;;6.50;50.39;96552.72;4974482;28;20047;-49
2021/04/23 06:30:06;;;;;;;10.63;5.68;;;;;;;6.61;50.20;96557.94;4977989;28;20054;-48
2021/04/23 06:32:33;;;;;;;14.57;5.70;;;;;;;6.78;48.98;96555.53;4974311;28;20043;-50
2021/04/23 06:35:00;;;;;;;12.43;5.53;;;;;;;6.87;49.00;96553.78;4973690;28;20110;-49
2021/04/23 06:37:27;;;;;;;13.27;5.10;;;;;;;6.92;48.43;96548.34;4973971;28;20496;-49
2021/04/23 06:39:53;;;;;;;10.80;5.70;;;;;;;7.00;48.26;96552.22;4973630;28;20471;-49
2021/04/23 06:42:20;;;;;;;14.55;5.63;;;;;;;6.99;47.63;96553.34;4973316;28;20058;-49
2021/04/23 06:44:46;;;;;;;12.23;5.78;;;;;;;6.94;47.71;96558.78;4969885;28;20066;-51
2021/04/23 06:47:13;;;;;;;13.10;5.93;;;;;;;6.95;48.42;96549.63;4973978;28;20436;-49
2021/04/23 06:49:40;;;;;;;14.57;5.93;;;;;;;7.03;48.15;96560.50;4973830;28;20055;-50
2021/04/23 06:52:06;;;;;;;11.82;5.60;;;;;;;7.17;47.16;96567.84;4973094;28;20113;-48
2021/04/23 06:54:32;;;;;;;16.45;5.65;;;;;;;7.14;46.73;96573.78;4973160;28;20055;-49
2021/04/23 06:56:59;;;;;;;13.65;5.68;;;;;;;7.15;46.87;96570.00;4973284;28;20098;-48
2021/04/23 06:59:25;;;;;;;11.13;5.47;;;;;;;7.23;46.57;96570.13;4970740;28;20544;-48
2021/04/23 07:01:52;;;;;;;13.88;5.85;;;;;;;7.41;46.87;96570.38;4972784;28;20146;-50
2021/04/23 07:04:18;;;;;;;9.57;5.13;;;;;;;7.41;46.19;96573.88;4978012;28;20424;-50
2021/04/23 07:06:46;;;;;;;14.73;6.45;;;;;;;7.49;46.16;96572.41;4987367;28;20051;-53
2021/04/23 07:09:17;;;;;;;33.65;7.00;;;;;;;7.76;45.92;96568.13;4985037;28;20081;-54
2021/04/23 07:11:46;;;;;;;12.70;5.60;;;;;;;7.76;44.64;96573.53;4993390;28;20471;-51
2021/04/23 07:14:13;;;;;;;16.92;5.53;;;;;;;7.77;45.22;96564.34;4972911;28;20049;-50
2021/04/23 07:16:39;;;;;;;10.38;5.38;;;;;;;7.99;44.12;96572.53;4973108;28;20054;-49
2021/04/23 07:19:06;;;;;;;12.57;5.57;;;;;;;8.32;43.93;96577.81;4973689;28;20520;-51
2021/04/23 07:21:33;;;;;;;15.30;5.30;;;;;;;8.22;43.19;96575.31;4987795;28;20137;-50
2021/04/23 07:24:03;;;;;;;13.23;5.40;;;;;;;8.18;43.49;96578.63;4989805;28;20691;-49
2021/04/23 07:26:29;;;;;;;13.48;6.32;;;;;;;8.41;42.79;96576.81;4972330;28;20130;-50
2021/04/23 07:28:56;;;;;;;11.30;4.80;;;;;;;8.60;41.79;96582.09;4973177;28;20570;-51
2021/04/23 07:31:23;;;;;;;12.00;5.20;;;;;;;8.50;42.43;96579.63;4974900;28;20073;-50
2021/04/23 07:33:51;;;;;;;18.60;6.22;;;;;;;8.57;43.32;96579.19;4988465;28;20101;-49
2021/04/23 07:36:18;;;;;;;13.98;5.97;;;;;;;8.64;42.85;96585.78;4973092;28;20068;-51
2021/04/23 07:38:44;;;;;;;11.00;4.80;;;;;;;8.38;42.25;96574.75;4988328;28;20412;-53
2021/04/23 07:41:12;;;;;;;9.27;5.22;;;;;;;8.54;42.83;96577.91;4967869;28;20105;-53
2021/04/23 07:43:39;;;;;;;13.02;5.57;;;;;;;8.47;43.63;96585.63;4961262;28;20133;-53
2021/04/23 07:46:06;;;;;;;11.88;5.32;;;;;;;8.35;43.27;96575.34;4971484;28;20050;-50
2021/04/23 07:48:33;;;;;;;12.07;5.53;;;;;;;8.45;43.54;96578.91;4968531;28;20046;-51
2021/04/23 07:51:01;;;;;;;11.55;5.28;;;;;;;8.59;43.04;96585.91;4985892;28;20058;-50
2021/04/23 07:53:28;;;;;;;15.15;5.18;;;;;;;8.57;42.84;96588.09;4984661;28;20043;-50
2021/04/23 07:55:54;;;;;;;14.45;5.45;;;;;;;8.57;42.81;96585.38;4990333;28;20058;-50
2021/04/23 07:58:21;;;;;;;11.82;5.50;;;;;;;8.69;42.38;96595.66;4972020;28;20114;-52
2021/04/23 08:00:48;;;;;;;12.95;5.30;;;;;;;8.76;42.42;96598.75;4972114;28;20069;-51
2021/04/23 08:03:21;;;;;;;12.52;5.15;;;;;;;8.69;41.70;96597.56;4972240;28;20432;-53
2021/04/23 08:05:47;;;;;;;11.23;4.93;;;;;;;8.69;41.47;96594.88;4982877;28;20065;-51
2021/04/23 08:08:14;;;;;;;15.32;5.72;;;;;;;8.79;41.63;96600.03;4973159;28;20110;-58
2021/04/23 08:10:40;;;;;;;13.30;5.28;;;;;;;8.95;41.96;96598.59;4970294;28;20592;-50
2021/04/23 08:13:07;;;;;;;14.45;5.25;;;;;;;9.08;41.13;96603.13;4971827;28;20046;-50
2021/04/23 08:15:36;;;;;;;15.27;5.70;;;;;;;9.41;40.12;96599.41;4953605;28;20113;-53
2021/04/23 08:18:03;;;;;;;11.85;4.78;;;;;;;9.43;40.25;96605.31;4971275;28;20053;-52
2021/04/23 08:20:30;;;;;;;10.93;4.15;;;;;;;9.38;40.03;96602.72;4968483;28;20074;-47
2021/04/23 08:22:56;;;;;;;13.07;4.38;;;;;;;9.24;39.37;96600.88;4971790;28;20059;-54
2021/04/23 08:25:24;;;;;;;9.18;3.90;;;;;;;9.24;38.48;96605.47;4971205;28;20051;-50
2021/04/23 08:27:51;;;;;;;14.45;4.35;;;;;;;8.92;39.66;96606.50;4971638;28;20567;-50
2021/04/23 08:30:22;;;;;;;14.68;4.70;;;;;;;9.05;40.39;96602.97;4971781;28;20047;-50
2021/04/23 08:32:49;;;;;;;11.60;4.15;;;;;;;9.34;39.56;96603.31;4970852;28;20141;-49
2021/04/23 08:35:17;;;;;;;10.18;4.32;;;;;;;9.41;39.03;96611.00;4969893;28;20058;-52
2021/04/23 08:37:44;;;;;;;7.80;3.40;;;;;;;9.18;38.70;96606.72;4971666;28;20082;-49
2021/04/23 08:40:14;;;;;;;9.35;3.50;;;;;;;8.98;39.05;96607.97;4971529;28;20402;-49
2021/04/23 08:42:42;;;;;;;9.50;3.67;;;;;;;8.98;38.76;96608.78;4973722;28;20149;-49
2021/04/23 08:45:12;;;;;;;9.05;3.72;;;;;;;9.43;38.99;96611.50;4974894;28;20113;-49
2021/04/23 08:47:40;;;;;;;12.52;4.70;;;;;;;9.43;38.57;96608.78;4971252;28;20509;-48
2021/04/23 08:50:14;;;;;;;10.18;4.22;;;;;;;9.35;38.39;96613.00;4976042;28;20082;-48
2021/04/23 08:52:43;;;;;;;9.05;3.83;;;;;;;9.24;38.66;96605.47;4995149;28;20066;-50
2021/04/23 08:55:12;;;;;;;12.43;4.47;;;;;;;9.22;38.31;96603.06;4971681;28;20063;-53
2021/04/23 08:57:39;;;;;;;12.70;4.10;;;;;;;9.50;38.33;96601.03;4975646;28;20055;-50
2021/04/23 09:00:08;;;;;;;9.95;4.20;;;;;;;9.63;37.19;96602.09;4978149;28;20397;-50
2021/04/23 09:02:35;;;;;;;8.80;3.92;;;;;;;9.86;37.40;96604.75;4975474;28;20047;-56
2021/04/23 09:05:04;;;;;;;7.95;3.75;;;;;;;10.04;36.93;96603.69;4975855;28;20058;-50
2021/04/23 09:07:31;;;;;;;10.75;3.90;;;;;;;10.21;36.66;96598.38;4974524;28;20055;-51
2021/04/23 09:10:12;;;;;;;11.05;3.97;;;;;;;10.23;36.22;96603.44;4974560;28;20050;-50
2021/04/23 09:12:39;;;;;;;11.23;4.25;;;;;;;10.14;35.98;96606.13;4967674;28;20053;-51
2021/04/23 09:15:21;;;;;;;8.07;4.00;;;;;;;10.05;35.77;96599.91;4974690;28;20055;-50
2021/04/23 09:18:26;;;;;;;10.65;3.80;;;;;;;10.04;35.76;96609.09;4975902;28;20393;-51
2021/04/23 09:21:04;;;;;;;9.73;4.22;;;;;;;10.01;36.46;96607.84;4972228;28;20508;-51
2021/04/23 09:23:31;;;;;;;10.27;4.88;;;;;;;9.89;36.43;96609.53;4971191;28;20050;-50
2021/04/23 09:25:59;;;;;;;10.57;4.20;;;;;;;10.02;37.06;96598.59;4972336;28;20055;-53
2021/04/23 09:28:37;;;;;;;9.25;4.43;;;;;;;10.35;36.09;96606.38;4973797;28;20050;-51
2021/04/23 09:31:29;;;;;;;10.50;4.10;;;;;;;10.07;36.73;96603.06;4973437;28;20110;-51
2021/04/23 09:34:00;;;;;;;12.32;4.20;;;;;;;10.41;36.85;96599.72;4970158;28;20051;-52
2021/04/23 09:36:40;;;;;;;7.72;4.32;;;;;;;10.38;35.10;96597.66;4974745;28;20063;-54
2021/04/23 09:39:19;;;;;;;12.95;4.38;;;;;;;10.57;34.83;96596.59;4975274;28;20047;-52
2021/04/23 09:41:59;;;;;;;11.00;4.50;;;;;;;10.48;35.69;96608.16;4962534;28;20070;-52
2021/04/23 09:44:34;;;;;;;12.45;4.47;;;;;;;10.16;35.70;96603.91;4971811;28;20511;-55
2021/04/23 09:47:15;;;;;;;11.85;4.50;;;;;;;10.21;35.48;96601.06;4975376;28;20063;-52
2021/04/23 09:49:50;;;;;;;9.82;4.47;;;;;;;10.50;35.29;96597.84;4974304;28;20057;-52
2021/04/23 09:52:16;;;;;;;8.65;4.00;;;;;;;10.37;34.15;96598.75;4974333;28;20191;-51
2021/04/23 09:55:03;;;;;;;8.32;3.90;;;;;;;10.20;34.33;96591.34;4974355;28;20050;-56
2021/04/23 09:57:34;;;;;;;10.07;3.92;;;;;;;10.42;34.34;96593.19;4973416;28;20080;-52
2021/04/23 10:00:06;;;;;;;11.43;4.60;;;;;;;10.24;35.62;96594.25;4976795;28;20485;-53
2021/04/23 10:02:35;;;;;;;9.68;4.45;;;;;;;10.29;35.47;96603.03;4992170;28;20085;-55
2021/04/23 10:05:02;;;;;;;8.77;4.60;;;;;;;10.50;34.59;96608.66;4973703;28;20051;-54
2021/04/23 10:07:35;;;;;;;16.48;4.65;;;;;;;10.56;34.57;96601.16;4974675;28;20058;-52
2021/04/23 10:10:12;;;;;;;10.40;4.38;;;;;;;10.48;34.58;96599.25;4973922;28;20063;-57
2021/04/23 10:12:50;;;;;;;8.27;3.90;;;;;;;10.55;34.48;96598.78;4974692;28;20271;-49
2021/04/23 10:15:27;;;;;;;13.15;4.32;;;;;;;10.75;33.74;96596.28;4993499;28;20156;-50
2021/04/23 10:18:07;;;;;;;11.90;4.05;;;;;;;10.70;33.74;96585.63;4978126;28;20091;-49
2021/04/23 10:20:44;;;;;;;8.60;3.80;;;;;;;10.79;32.28;96598.34;4973480;28;20059;-55
2021/04/23 10:23:14;;;;;;;9.13;3.65;;;;;;;10.95;31.69;96591.34;4973201;28;20069;-53
2021/04/23 10:25:42;;;;;;;8.32;4.00;;;;;;;10.81;32.56;96583.38;4973147;28;20440;-50
2021/04/23 10:28:11;;;;;;;10.18;3.72;;;;;;;11.17;32.05;96583.06;4973632;28;20505;-49
2021/04/23 10:30:43;;;;;;;10.70;3.70;;;;;;;11.17;32.18;96593.09;4977589;28;20575;-50
2021/04/23 10:33:15;;;;;;;8.88;4.18;;;;;;;11.11;31.94;96586.25;4972325;28;20061;-50
2021/04/23 10:35:44;;;;;;;9.55;3.75;;;;;;;11.23;32.28;96584.50;4975264;28;20054;-52
2021/04/23 10:38:14;;;;;;;9.15;4.28;;;;;;;11.19;32.07;96580.06;4974666;28;20047;-52
2021/04/23 10:40:42;;;;;;;9.00;4.35;;;;;;;11.04;31.59;96583.22;4973765;28;20141;-50
2021/04/23 10:43:17;;;;;;;8.52;3.75;;;;;;;11.33;32.19;96583.38;4977935;28;20562;-52
2021/04/23 10:45:47;;;;;;;8.05;3.78;;;;;;;11.33;31.04;96571.75;4988444;28;20050;-52
2021/04/23 10:48:14;;;;;;;8.95;4.32;;;;;;;11.66;30.61;96577.41;4975448;28;20563;-54
2021/04/23 10:50:49;;;;;;;8.70;4.10;;;;;;;11.93;30.03;96578.97;4973452;28;20566;-53
2021/04/23 10:53:43;;;;;;;11.52;4.78;;;;;;;11.96;30.31;96580.22;4973047;28;20051;-52
2021/04/23 10:56:20;;;;;;;8.43;3.58;;;;;;;12.05;30.15;96572.84;4971172;28;20086;-49
2021/04/23 10:58:47;;;;;;;9.65;3.50;;;;;;;12.01;28.33;96577.31;4973652;28;20484;-54
2021/04/23 11:01:22;;;;;;;6.85;3.22;;;;;;;11.92;28.36;96578.16;4980923;28;20508;-52
2021/04/23 11:04:17;;;;;;;8.10;3.70;;;;;;;12.23;29.09;96573.56;4967561;28;20065;-48
2021/04/23 11:07:03;;;;;;;8.48;3.63;;;;;;;12.10;29.01;96572.66;4981663;28;20065;-47
2021/04/23 11:09:30;;;;;;;8.32;4.28;;;;;;;12.27;28.21;96572.56;4970135;28;20082;-49
2021/04/23 11:12:06;;;;;;;10.00;4.20;;;;;;;12.39;28.49;96567.25;4973338;28;20066;-52
2021/04/23 11:14:35;;;;;;;10.40;4.00;;;;;;;13.07;28.12;96556.22;4981743;28;20090;-53
2021/04/23 11:17:17;;;;;;;11.60;4.15;;;;;;;13.04;27.31;96554.19;4993310;28;20526;-52
2021/04/23 11:19:51;;;;;;;9.95;4.22;;;;;;;13.40;28.30;96560.13;4980900;28;20047;-55
2021/04/23 11:22:19;;;;;;;10.73;4.05;;;;;;;13.51;26.81;96562.06;5000128;28;20054;-55
2021/04/23 11:25:19;;;;;;;9.18;4.00;;;;;;;14.33;26.15;96565.91;4991946;28;20163;-52
2021/04/23 11:28:07;;;;;;;8.80;4.10;;;;;;;14.49;26.80;96562.19;4954427;28;20059;-51
2021/04/23 11:30:57;;;;;;;10.85;4.10;;;;;;;15.62;27.53;96552.19;4964507;28;20070;-54
2021/04/23 11:33:50;;;;;;;9.10;3.88;;;;;;;15.85;24.57;96546.94;4978030;28;20042;-54
2021/04/23 11:36:27;;;;;;;10.30;4.28;;;;;;;15.48;24.03;96557.25;4971230;28;20051;-54
2021/04/23 11:39:10;;;;;;;9.35;3.85;;;;;;;15.48;24.07;96551.03;4968723;28;20109;-57
2021/04/23 11:41:37;;;;;;;8.07;3.72;;;;;;;15.77;24.25;96555.31;4970568;28;20077;-52
2021/04/23 11:44:39;;;;;;;9.80;4.28;;;;;;;15.51;24.41;96562.03;4968714;28;20054;-53
2021/04/23 11:47:07;;;;;;;10.77;5.05;;;;;;;14.86;24.98;96559.41;4966734;28;20047;-54